Rae Lakes Airport
CYRA : now visible

Airfield :











YOU CAN JOIN US ON...

 
LOGIN :

Register | Disclaimer

   EN    FR    IT 

 









Legend :    VFR   Marginal VFR   IFR   Intensive IFR   Very Intensive IFR
Visi :
Ceiling :
>= 8 km
>= 3000ft
5 to 8 km
1000 to 3000 ft
1500m to 5 km
500 to 1000 ft
800 to 1500m
200 to 500 ft
< 800m
< 200 ft
Symbols :   Thunderstorms  Fog  Heavy snow  Heavy precipitations  Wind > 20 kt






- Airport Elevation : 723 ft
- IATA code : YRA


CYRA - Rae Lakes

CURRENT METAR :
  • 261716Z 03004KT 3SM -SN OVC035 M24/M27 A3005 RMK ST8 SLP212

EXPIRED METARs :
  • 261700Z 36003KT 340V050 10SM -SN OVC038 M24/M27 A3006 RMK ST8 SLP216
  • 261617Z 35003KT 15SM -SN OVC077 M25/M28 A3008 RMK AS8 SLP220
  • 261500Z 32002KT 6SM -SN BKN033 OVC084 M26/M29 A3008 RMK ST6AS2 STR AFT 01UTC / 40 / SNW CVR/MUCH LOOSE SLP221

TAF TAF CYRA
Valid from the 26 at 17:00 until the 27 at 01:00 UTC


261640Z 2617/2701 VRB03KT P6SM SCT020 BKN070
TEMPO 2617/2701 5SM -SN BKN020 OVC070 RMK NXT FCST BY 261900Z



MET'MAP, your aeronautical weather chart ! - Copyright ORBIFLY December 2007 - Disclaimer

ORBIFLY MET'MAP TEAM :

Programming & Development : Alexandra Zaïnal
Concept & original design : Baudouin d'Aumeries
Assistance for programming : Marc-Olivier Méhu
Technical & hardware support : Manuel Goepfert

Contact : metmap@orbifly.com




SOURCES & CREDITS :

   NOAA       Earth
Advisory